createdAt,value
2018-12-16T00:00:04.794Z,997.13
2018-12-16T00:01:08.630Z,997.16
2018-12-16T00:02:11.982Z,997.1
2018-12-16T00:03:15.855Z,997.17
2018-12-16T00:04:15.358Z,997.17
2018-12-16T00:05:20.337Z,997.15
2018-12-16T00:06:23.415Z,997.17
2018-12-16T00:07:24.413Z,997.22
2018-12-16T00:08:25.675Z,997.16
2018-12-16T00:09:23.713Z,997.25
2018-12-16T00:10:23.440Z,997.28
2018-12-16T00:11:21.295Z,997.25
2018-12-16T00:12:18.698Z,997.29
2018-12-16T00:13:16.496Z,997.29
2018-12-16T00:14:15.516Z,997.23
2018-12-16T00:15:13.193Z,997.2
2018-12-16T00:16:22.544Z,997.16
2018-12-16T00:17:20.506Z,997.23
2018-12-16T00:18:19.111Z,997.25
2018-12-16T00:19:17.767Z,997.26
2018-12-16T00:20:15.168Z,997.22
2018-12-16T00:21:12.948Z,997.26
2018-12-16T00:22:11.831Z,997.25
2018-12-16T00:23:12.833Z,997.19
2018-12-16T00:24:12.041Z,997.19
2018-12-16T00:25:09.335Z,997.24
2018-12-16T00:26:07.115Z,997.19
2018-12-16T00:27:06.783Z,997.18
2018-12-16T00:28:05.831Z,997.18
2018-12-16T00:29:03.372Z,997.21
2018-12-16T00:30:00.719Z,997.25
2018-12-16T00:31:03.247Z,997.18
2018-12-16T00:32:02.081Z,997.19
2018-12-16T00:33:03.918Z,997.04
2018-12-16T00:34:01.518Z,997.09
2018-12-16T00:35:02.603Z,997.09
2018-12-16T00:36:08.962Z,997
2018-12-16T00:37:13.803Z,996.97
2018-12-16T00:38:10.154Z,996.93
2018-12-16T00:39:11.751Z,996.97
2018-12-16T00:40:11.112Z,996.84
2018-12-16T00:41:09.227Z,996.85
2018-12-16T00:42:08.122Z,996.77
2018-12-16T00:43:06.427Z,996.75
2018-12-16T00:44:07.450Z,996.72
2018-12-16T00:45:10.668Z,996.72
2018-12-16T00:46:08.456Z,996.65
2018-12-16T00:47:13.455Z,996.59
2018-12-16T00:48:10.619Z,996.59
2018-12-16T00:49:08.804Z,996.56
2018-12-16T00:50:07.031Z,996.59
2018-12-16T00:51:05.813Z,996.45
2018-12-16T00:52:04.084Z,996.5
2018-12-16T00:53:04.000Z,996.25
2018-12-16T00:54:02.785Z,996.41
2018-12-16T00:55:00.038Z,996.47
2018-12-16T00:56:02.196Z,996.35
2018-12-16T00:57:07.858Z,996.47
2018-12-16T00:58:07.252Z,996.34
2018-12-16T00:59:08.062Z,996.37
2018-12-16T01:00:05.458Z,996.34
2018-12-16T01:01:03.274Z,996.38
2018-12-16T01:02:00.981Z,996.35
2018-12-16T01:02:58.928Z,996.28
2018-12-16T01:04:02.680Z,996.35
2018-12-16T01:05:02.846Z,996.35
2018-12-16T01:06:00.102Z,996.19
2018-12-16T01:07:05.457Z,996.28
2018-12-16T01:08:07.507Z,996.25
2018-12-16T01:09:08.341Z,996.22
2018-12-16T01:10:11.335Z,996.16
2018-12-16T01:11:09.343Z,996.24
2018-12-16T01:12:11.189Z,996.21
2018-12-16T01:13:16.107Z,996.24
2018-12-16T01:14:13.154Z,996.19
2018-12-16T01:15:12.423Z,996.09
2018-12-16T01:16:14.118Z,996.25
2018-12-16T01:17:12.774Z,996.16
2018-12-16T01:18:10.448Z,996.15
2018-12-16T01:19:19.237Z,996.18
2018-12-16T01:20:18.071Z,996.12
2018-12-16T01:21:21.230Z,996.12
2018-12-16T01:22:22.956Z,996.08
2018-12-16T01:23:21.235Z,996.15
2018-12-16T01:24:26.731Z,996.09
2018-12-16T01:25:24.064Z,996
2018-12-16T01:26:23.002Z,996.08
2018-12-16T01:27:21.233Z,996.09
2018-12-16T01:28:19.305Z,996.03
2018-12-16T01:29:19.925Z,995.96
2018-12-16T01:30:21.164Z,996.03
2018-12-16T01:31:18.755Z,996.09
2018-12-16T01:32:16.724Z,996
2018-12-16T01:33:24.998Z,995.95
2018-12-16T01:34:24.363Z,996.03
2018-12-16T01:35:23.726Z,996.06
2018-12-16T01:36:21.359Z,995.96
2018-12-16T01:37:20.550Z,995.93
2018-12-16T01:38:21.050Z,995.96
2018-12-16T01:39:19.256Z,996.06
2018-12-16T01:40:17.334Z,995.97
2018-12-16T01:41:14.513Z,995.92
2018-12-16T01:42:12.623Z,995.96
2018-12-16T01:43:13.296Z,995.9
2018-12-16T01:44:11.292Z,995.9
2018-12-16T01:45:12.238Z,995.86
2018-12-16T01:46:10.117Z,995.89
2018-12-16T01:47:08.750Z,995.87
2018-12-16T01:48:12.079Z,995.83
2018-12-16T01:49:12.429Z,995.81
2018-12-16T01:50:09.526Z,995.76
2018-12-16T01:51:13.111Z,995.7
2018-12-16T01:52:17.243Z,995.62
2018-12-16T01:53:17.783Z,995.67
2018-12-16T01:54:15.141Z,995.65
2018-12-16T01:55:15.810Z,995.7
2018-12-16T01:56:17.655Z,995.62
2018-12-16T01:57:16.045Z,995.68
2018-12-16T01:58:14.885Z,995.77
2018-12-16T01:59:13.691Z,995.64
2018-12-16T02:00:13.063Z,995.53
2018-12-16T02:01:09.978Z,995.61
2018-12-16T02:02:07.951Z,995.62
2018-12-16T02:03:05.581Z,995.64
2018-12-16T02:04:05.149Z,995.64
2018-12-16T02:05:07.843Z,995.6
2018-12-16T02:06:07.311Z,995.55
2018-12-16T02:07:06.667Z,995.47
2018-12-16T02:08:04.014Z,995.39
2018-12-16T02:09:03.057Z,995.39
2018-12-16T02:10:00.322Z,995.5
2018-12-16T02:10:58.723Z,995.43
2018-12-16T02:12:01.662Z,995.42
2018-12-16T02:13:00.792Z,995.44
2018-12-16T02:13:57.809Z,995.4
2018-12-16T02:15:01.919Z,995.49
2018-12-16T02:16:16.998Z,995.39
2018-12-16T02:17:15.925Z,995.3
2018-12-16T02:18:13.237Z,995.36
2018-12-16T02:19:11.011Z,995.31
2018-12-16T02:20:09.184Z,995.21
2018-12-16T02:21:07.240Z,995.12
2018-12-16T02:22:06.010Z,995.31
2018-12-16T02:23:03.399Z,995.09
2018-12-16T02:24:03.788Z,995.2
2018-12-16T02:25:01.301Z,995.23
2018-12-16T02:25:58.612Z,995.04
2018-12-16T02:26:57.694Z,995.04
2018-12-16T02:27:55.105Z,994.96
2018-12-16T02:28:52.414Z,994.92
2018-12-16T02:29:54.341Z,994.98
2018-12-16T02:30:54.075Z,994.93
2018-12-16T02:31:55.440Z,994.9
2018-12-16T02:32:53.413Z,994.9
2018-12-16T02:33:54.990Z,994.86
2018-12-16T02:34:58.703Z,994.86
2018-12-16T02:35:57.384Z,994.88
2018-12-16T02:37:02.936Z,994.79
2018-12-16T02:38:05.763Z,994.89
2018-12-16T02:39:04.672Z,994.9
2018-12-16T02:40:03.227Z,994.86
2018-12-16T02:41:00.872Z,994.88
2018-12-16T02:41:58.025Z,994.85
2018-12-16T02:42:55.710Z,994.86
2018-12-16T02:43:55.462Z,994.93
2018-12-16T02:44:53.483Z,994.73
2018-12-16T02:45:53.048Z,994.79
2018-12-16T02:46:50.465Z,994.86
2018-12-16T02:47:47.399Z,994.73
2018-12-16T02:48:52.470Z,994.71
2018-12-16T02:49:50.234Z,994.74
2018-12-16T02:50:47.287Z,994.64
2018-12-16T02:51:44.352Z,994.67
2018-12-16T02:52:42.665Z,994.58
2018-12-16T02:53:39.780Z,994.62
2018-12-16T02:54:40.479Z,994.59
2018-12-16T02:55:37.866Z,994.62
2018-12-16T02:56:36.146Z,994.62
2018-12-16T02:57:34.385Z,994.61
2018-12-16T02:58:33.282Z,994.61
2018-12-16T02:59:36.603Z,994.61
2018-12-16T03:00:33.161Z,994.54
2018-12-16T03:01:33.375Z,994.55
2018-12-16T03:02:35.731Z,994.48
2018-12-16T03:03:41.285Z,994.51
2018-12-16T03:04:43.560Z,994.39
2018-12-16T03:05:43.036Z,994.4
2018-12-16T03:06:44.543Z,994.36
2018-12-16T03:07:45.993Z,994.42
2018-12-16T03:08:43.061Z,994.33
2018-12-16T03:09:40.561Z,994.39
2018-12-16T03:10:38.710Z,994.37
2018-12-16T03:11:38.397Z,994.36
2018-12-16T03:12:39.395Z,994.36
2018-12-16T03:13:38.660Z,994.35
2018-12-16T03:14:36.229Z,994.38
2018-12-16T03:15:33.281Z,994.38
2018-12-16T03:16:32.088Z,994.35
2018-12-16T03:17:34.287Z,994.36
2018-12-16T03:18:39.161Z,994.35
2018-12-16T03:19:39.524Z,994.33
2018-12-16T03:20:37.362Z,994.16
2018-12-16T03:21:37.729Z,994.3
2018-12-16T03:22:39.530Z,994.29
2018-12-16T03:23:37.522Z,994.23
2018-12-16T03:24:34.386Z,994.19
2018-12-16T03:25:35.280Z,994.16
2018-12-16T03:26:36.033Z,994.21
2018-12-16T03:27:31.250Z,994.07
2018-12-16T03:28:28.148Z,994.16
2018-12-16T03:29:26.113Z,994.16
2018-12-16T03:30:23.532Z,994.13
2018-12-16T03:31:27.065Z,994.05
2018-12-16T03:32:30.976Z,994.01
2018-12-16T03:33:35.601Z,993.97
2018-12-16T03:34:33.352Z,994
2018-12-16T03:34:46.518Z,994.04
2018-12-16T03:35:43.856Z,994.04
2018-12-16T03:36:44.888Z,994
2018-12-16T03:37:42.873Z,993.89
2018-12-16T03:38:43.630Z,993.86
2018-12-16T03:39:50.478Z,993.89
2018-12-16T03:40:49.781Z,993.85
2018-12-16T03:41:53.015Z,993.95
2018-12-16T03:42:50.155Z,993.78
2018-12-16T03:43:50.235Z,993.85
2018-12-16T03:44:49.315Z,993.94
2018-12-16T03:45:47.204Z,993.86
2018-12-16T03:46:45.180Z,993.94
2018-12-16T03:47:45.395Z,993.88
2018-12-16T03:48:46.848Z,993.89
2018-12-16T03:49:47.093Z,993.82
2018-12-16T03:50:44.853Z,993.88
2018-12-16T03:51:45.273Z,993.88
2018-12-16T03:52:43.456Z,993.89
2018-12-16T03:53:45.574Z,993.91
2018-12-16T03:54:48.585Z,993.81
2018-12-16T03:55:46.719Z,993.81
2018-12-16T03:56:43.408Z,993.85
2018-12-16T03:57:43.799Z,993.79
2018-12-16T03:58:41.272Z,993.78
2018-12-16T03:59:47.125Z,993.72
2018-12-16T04:00:44.672Z,993.78
2018-12-16T04:01:43.259Z,993.68
2018-12-16T04:02:39.979Z,993.73
2018-12-16T04:03:37.596Z,993.75
2018-12-16T04:04:34.848Z,993.79
2018-12-16T04:05:44.547Z,993.71
2018-12-16T04:06:43.903Z,993.69
2018-12-16T04:07:41.933Z,993.66
2018-12-16T04:08:45.196Z,993.6
2018-12-16T04:09:46.833Z,993.62
2018-12-16T04:10:47.359Z,993.62
2018-12-16T04:11:45.051Z,993.65
2018-12-16T04:12:43.431Z,993.63
2018-12-16T04:13:43.336Z,993.5
2018-12-16T04:14:43.122Z,993.63
2018-12-16T04:15:43.779Z,993.65
2018-12-16T04:16:40.987Z,993.72
2018-12-16T04:17:37.683Z,993.72
2018-12-16T04:18:45.783Z,993.68
2018-12-16T04:19:45.646Z,993.66
2018-12-16T04:20:42.652Z,993.58
2018-12-16T04:21:40.325Z,993.66
2018-12-16T04:22:46.901Z,993.55
2018-12-16T04:23:49.821Z,993.68
2018-12-16T04:24:51.781Z,993.58
2018-12-16T04:25:50.148Z,993.6
2018-12-16T04:26:51.115Z,993.69
2018-12-16T04:27:55.412Z,993.63
2018-12-16T04:28:59.392Z,993.63
2018-12-16T04:30:00.220Z,993.6
2018-12-16T04:30:58.367Z,993.62
2018-12-16T04:31:59.325Z,993.6
2018-12-16T04:33:00.126Z,993.62
2018-12-16T04:33:56.972Z,993.56
2018-12-16T04:34:55.910Z,993.56
2018-12-16T04:35:54.242Z,993.55
2018-12-16T04:36:53.532Z,993.58
2018-12-16T04:37:59.515Z,993.59
2018-12-16T04:39:00.359Z,993.63
2018-12-16T04:39:58.037Z,993.61
2018-12-16T04:40:57.335Z,993.59
2018-12-16T04:41:57.820Z,993.56
2018-12-16T04:42:55.011Z,993.62
2018-12-16T04:43:54.036Z,993.61
2018-12-16T04:44:51.764Z,993.63
2018-12-16T04:45:54.587Z,993.69
2018-12-16T04:46:51.370Z,993.63
2018-12-16T04:47:48.426Z,993.65
2018-12-16T04:48:46.419Z,993.71
2018-12-16T04:49:46.276Z,993.68
2018-12-16T04:50:44.901Z,993.72
2018-12-16T04:51:42.258Z,993.65
2018-12-16T04:52:40.655Z,993.63
2018-12-16T04:53:41.295Z,993.71
2018-12-16T04:54:41.094Z,993.62
2018-12-16T04:55:39.910Z,993.53
2018-12-16T04:56:37.782Z,993.66
2018-12-16T04:57:34.946Z,993.59
2018-12-16T04:58:34.413Z,993.61
2018-12-16T04:59:33.768Z,993.61
2018-12-16T05:00:32.304Z,993.52
2018-12-16T05:01:31.618Z,993.53
2018-12-16T05:02:30.850Z,993.56
2018-12-16T05:03:31.030Z,993.56
2018-12-16T05:04:27.863Z,993.55
2018-12-16T05:05:26.539Z,993.5
2018-12-16T05:06:26.938Z,993.46
2018-12-16T05:07:24.726Z,993.59
2018-12-16T05:08:23.042Z,993.53
2018-12-16T05:09:24.475Z,993.61
2018-12-16T05:10:21.160Z,993.64
2018-12-16T05:11:19.260Z,993.49
2018-12-16T05:12:17.402Z,993.62
2018-12-16T05:13:19.194Z,993.62
2018-12-16T05:14:19.061Z,993.61
2018-12-16T05:15:16.506Z,993.53
2018-12-16T05:16:16.827Z,993.61
2018-12-16T05:17:13.696Z,993.59
2018-12-16T05:18:15.555Z,993.58
2018-12-16T05:19:12.988Z,993.59
2018-12-16T05:20:10.865Z,993.56
2018-12-16T05:21:08.045Z,993.5
2018-12-16T05:22:14.878Z,993.45
2018-12-16T05:23:14.276Z,993.53
2018-12-16T05:24:10.937Z,993.45
2018-12-16T05:25:13.742Z,993.39
2018-12-16T05:26:17.284Z,993.42
2018-12-16T05:27:21.187Z,993.48
2018-12-16T05:28:27.142Z,993.53
2018-12-16T05:29:24.983Z,993.34
2018-12-16T05:30:23.972Z,993.39
2018-12-16T05:31:22.653Z,993.4
2018-12-16T05:32:21.030Z,993.4
2018-12-16T05:33:19.289Z,993.53
2018-12-16T05:34:18.266Z,993.51
2018-12-16T05:35:15.367Z,993.48
2018-12-16T05:36:19.269Z,993.48
2018-12-16T05:37:16.246Z,993.45
2018-12-16T05:38:17.918Z,993.42
2018-12-16T05:39:20.998Z,993.4
2018-12-16T05:40:18.930Z,993.39
2018-12-16T05:41:17.240Z,993.43
2018-12-16T05:42:16.376Z,993.32
2018-12-16T05:43:13.217Z,993.36
2018-12-16T05:44:12.049Z,993.37
2018-12-16T05:45:12.240Z,993.3
2018-12-16T05:46:08.827Z,993.33
2018-12-16T05:47:07.469Z,993.45
2018-12-16T05:48:11.849Z,993.4
2018-12-16T05:49:11.663Z,993.36
2018-12-16T05:50:08.937Z,993.37
2018-12-16T05:51:06.158Z,993.35
2018-12-16T05:52:04.811Z,993.39
2018-12-16T05:53:03.364Z,993.37
2018-12-16T05:54:00.587Z,993.4
2018-12-16T05:54:57.977Z,993.37
2018-12-16T05:55:59.019Z,993.37
2018-12-16T05:57:00.700Z,993.35
2018-12-16T05:58:05.508Z,993.36
2018-12-16T05:59:02.322Z,993.39
2018-12-16T05:59:59.273Z,993.33
2018-12-16T06:00:59.116Z,993.32
2018-12-16T06:01:57.416Z,993.4
2018-12-16T06:02:55.635Z,993.36
2018-12-16T06:03:52.956Z,993.33
2018-12-16T06:04:50.992Z,993.36
2018-12-16T06:05:49.043Z,993.29
2018-12-16T06:06:46.516Z,993.36
2018-12-16T06:07:46.237Z,993.33
2018-12-16T06:08:45.288Z,993.33
2018-12-16T06:09:43.386Z,993.33
2018-12-16T06:10:41.017Z,993.27
2018-12-16T06:11:41.118Z,993.27
2018-12-16T06:12:40.871Z,993.39
2018-12-16T06:13:38.141Z,993.39
2018-12-16T06:14:34.960Z,993.42
2018-12-16T06:15:31.867Z,993.32
2018-12-16T06:16:31.495Z,993.39
2018-12-16T06:17:30.139Z,993.35
2018-12-16T06:18:37.111Z,993.35
2018-12-16T06:19:38.408Z,993.42
2018-12-16T06:20:39.263Z,993.38
2018-12-16T06:21:38.389Z,993.3
2018-12-16T06:22:43.850Z,993.36
2018-12-16T06:23:44.397Z,993.26
2018-12-16T06:24:41.666Z,993.29
2018-12-16T06:25:46.937Z,993.26
2018-12-16T06:26:48.253Z,993.27
2018-12-16T06:27:58.987Z,993.26
2018-12-16T06:29:04.697Z,993.23
2018-12-16T06:30:01.546Z,993.09
2018-12-16T06:31:06.242Z,993.14
2018-12-16T06:32:08.761Z,993.21
2018-12-16T06:33:09.552Z,993.17
2018-12-16T06:34:06.990Z,993.12
2018-12-16T06:35:08.746Z,993.14
2018-12-16T06:36:05.470Z,993.05
2018-12-16T06:37:07.451Z,993.12
2018-12-16T06:38:12.898Z,993.07
2018-12-16T06:39:17.848Z,992.99
2018-12-16T06:40:24.118Z,993.09
2018-12-16T06:41:20.845Z,993.04
2018-12-16T06:42:20.107Z,993.15
2018-12-16T06:43:18.460Z,993.12
2018-12-16T06:44:15.594Z,993.08
2018-12-16T06:45:12.616Z,992.99
2018-12-16T06:46:09.955Z,993.11
2018-12-16T06:47:06.523Z,993.14
2018-12-16T06:48:06.490Z,993.09
2018-12-16T06:49:03.848Z,992.96
2018-12-16T06:50:00.512Z,992.99
2018-12-16T06:51:01.189Z,993.05
2018-12-16T06:51:58.395Z,992.99
2018-12-16T06:53:00.599Z,993.11
2018-12-16T06:54:02.327Z,993.09
2018-12-16T06:54:02.860Z,993.09
2018-12-16T06:55:02.276Z,993.12
2018-12-16T06:56:06.596Z,993.15
2018-12-16T06:57:00.421Z,993.11
2018-12-16T06:58:00.155Z,993.18
2018-12-16T06:58:57.994Z,993.21
2018-12-16T07:00:01.774Z,993.18
2018-12-16T07:01:07.997Z,993.15
2018-12-16T07:02:09.622Z,993.11
2018-12-16T07:03:08.109Z,993.04
2018-12-16T07:04:05.597Z,993.17
2018-12-16T07:05:03.465Z,993.15
2018-12-16T07:06:04.766Z,993.1
2018-12-16T07:07:03.522Z,993.14
2018-12-16T07:08:03.426Z,993.08
2018-12-16T07:09:09.413Z,993.12
2018-12-16T07:10:07.495Z,993.17
2018-12-16T07:11:05.252Z,993.17
2018-12-16T07:12:02.191Z,993.2
2018-12-16T07:13:12.635Z,993.26
2018-12-16T07:14:10.565Z,993.32
2018-12-16T07:15:07.692Z,993.26
2018-12-16T07:16:04.408Z,993.21
2018-12-16T07:17:01.225Z,993.26
2018-12-16T07:17:58.873Z,993.18
2018-12-16T07:18:55.626Z,993.26
2018-12-16T07:19:53.506Z,993.18
2018-12-16T07:20:50.093Z,993.2
2018-12-16T07:21:47.854Z,993.21
2018-12-16T07:22:48.175Z,993.21
2018-12-16T07:23:49.089Z,993.17
2018-12-16T07:24:47.821Z,993.17
2018-12-16T07:25:57.550Z,993.2
2018-12-16T07:26:54.792Z,993.13
2018-12-16T07:27:51.292Z,993.15
2018-12-16T07:28:53.636Z,993.18
2018-12-16T07:29:51.343Z,993.2
2018-12-16T07:30:47.819Z,993.1
2018-12-16T07:31:46.883Z,993.1
2018-12-16T07:32:46.554Z,993.15
2018-12-16T07:33:51.853Z,993.21
2018-12-16T07:34:50.954Z,993.17
2018-12-16T07:35:47.384Z,993.26
2018-12-16T07:36:44.041Z,993.11
2018-12-16T07:37:42.738Z,993.15
2018-12-16T07:38:46.393Z,993.26
2018-12-16T07:39:44.122Z,993.21
2018-12-16T07:40:45.586Z,993.17
2018-12-16T07:41:46.866Z,993.23
2018-12-16T07:42:45.681Z,993.18
2018-12-16T07:43:43.861Z,993.26
2018-12-16T07:44:42.598Z,993.2
2018-12-16T07:45:45.334Z,993.24
2018-12-16T07:46:43.473Z,993.35
2018-12-16T07:47:41.313Z,993.32
2018-12-16T07:48:38.761Z,993.36
2018-12-16T07:49:37.018Z,993.33
2018-12-16T07:50:39.737Z,993.32
2018-12-16T07:51:37.521Z,993.39
2018-12-16T07:52:37.532Z,993.32
2018-12-16T07:53:36.996Z,993.33
2018-12-16T07:54:33.615Z,993.38
2018-12-16T07:55:31.748Z,993.26
2018-12-16T07:56:30.463Z,993.42
2018-12-16T07:57:27.494Z,993.45
2018-12-16T07:58:24.011Z,993.41
2018-12-16T07:59:26.495Z,993.48
2018-12-16T08:00:23.183Z,993.45
2018-12-16T08:01:23.535Z,993.55
2018-12-16T08:02:22.374Z,993.55
2018-12-16T08:03:19.812Z,993.52
2018-12-16T08:04:23.969Z,993.51
2018-12-16T08:05:35.442Z,993.53
2018-12-16T08:06:33.735Z,993.58
2018-12-16T08:07:35.445Z,993.55
2018-12-16T08:08:42.660Z,993.54
2018-12-16T08:09:42.120Z,993.6
2018-12-16T08:10:41.453Z,993.6
2018-12-16T08:11:42.139Z,993.6
2018-12-16T08:12:40.772Z,993.67
2018-12-16T08:13:38.779Z,993.67
2018-12-16T08:14:35.223Z,993.7
2018-12-16T08:15:34.860Z,993.61
2018-12-16T08:16:32.421Z,993.76
2018-12-16T08:17:30.970Z,993.72
2018-12-16T08:18:36.306Z,993.76
2018-12-16T08:19:36.183Z,993.73
2018-12-16T08:20:35.673Z,993.79
2018-12-16T08:21:33.406Z,993.76
2018-12-16T08:22:30.903Z,993.69
2018-12-16T08:23:28.890Z,993.7
2018-12-16T08:24:28.841Z,993.64
2018-12-16T08:25:26.803Z,993.74
2018-12-16T08:26:25.720Z,993.64
2018-12-16T08:27:22.479Z,993.67
2018-12-16T08:28:19.487Z,993.66
2018-12-16T08:29:26.599Z,993.66
2018-12-16T08:30:23.357Z,993.57
2018-12-16T08:31:32.994Z,993.73
2018-12-16T08:32:29.503Z,993.64
2018-12-16T08:33:27.084Z,993.66
2018-12-16T08:34:30.379Z,993.7
2018-12-16T08:35:29.690Z,993.66
2018-12-16T08:36:29.166Z,993.66
2018-12-16T08:37:28.838Z,993.75
2018-12-16T08:38:29.109Z,993.7
2018-12-16T08:39:26.946Z,993.76
2018-12-16T08:40:36.420Z,993.73
2018-12-16T08:41:33.743Z,993.75
2018-12-16T08:42:34.253Z,993.77
2018-12-16T08:43:31.170Z,993.77
2018-12-16T08:44:32.217Z,993.82
2018-12-16T08:45:30.801Z,993.76
2018-12-16T08:46:27.458Z,993.79
2018-12-16T08:47:24.395Z,993.8
2018-12-16T08:48:24.733Z,993.82
2018-12-16T08:49:22.466Z,993.85
2018-12-16T08:50:20.684Z,993.77
2018-12-16T08:51:17.469Z,993.85
2018-12-16T08:52:14.248Z,993.98
2018-12-16T08:53:16.553Z,993.83
2018-12-16T08:54:15.525Z,993.94
2018-12-16T08:55:12.643Z,993.88
2018-12-16T08:56:14.199Z,993.95
2018-12-16T08:57:12.127Z,993.95
2018-12-16T08:58:13.118Z,993.88
2018-12-16T08:59:11.337Z,993.95
2018-12-16T09:00:11.583Z,993.92
2018-12-16T09:01:11.424Z,993.98
2018-12-16T09:02:10.671Z,993.94
2018-12-16T09:03:07.228Z,993.88
2018-12-16T09:04:04.556Z,993.92
2018-12-16T09:05:03.478Z,993.89
2018-12-16T09:06:04.533Z,993.89
2018-12-16T09:07:03.634Z,993.95
2018-12-16T09:08:00.285Z,993.91
2018-12-16T09:09:02.142Z,993.92
2018-12-16T09:10:01.026Z,993.96
2018-12-16T09:11:02.015Z,993.94
2018-12-16T09:12:03.200Z,993.95
2018-12-16T09:13:02.802Z,993.89
2018-12-16T09:14:03.524Z,993.89
2018-12-16T09:15:06.294Z,993.88
2018-12-16T09:16:03.203Z,993.92
2018-12-16T09:16:59.958Z,993.86
2018-12-16T09:17:59.018Z,993.92
2018-12-16T09:18:55.652Z,993.89
2018-12-16T09:19:54.312Z,993.94
2018-12-16T09:20:51.998Z,993.96
2018-12-16T09:21:54.705Z,993.92
2018-12-16T09:22:53.239Z,993.96
2018-12-16T09:23:54.882Z,993.92
2018-12-16T09:24:55.318Z,993.91
2018-12-16T09:25:52.995Z,993.92
2018-12-16T09:26:53.938Z,993.96
2018-12-16T09:27:55.448Z,994.01
2018-12-16T09:28:51.825Z,993.94
2018-12-16T09:29:51.723Z,993.91
2018-12-16T09:30:48.391Z,993.99
2018-12-16T09:31:55.842Z,993.98
2018-12-16T09:33:00.825Z,993.91
2018-12-16T09:34:05.679Z,994.02
2018-12-16T09:35:04.061Z,994.01
2018-12-16T09:36:06.949Z,993.99
2018-12-16T09:37:04.165Z,993.98
2018-12-16T09:38:02.774Z,993.95
2018-12-16T09:39:01.333Z,993.95
2018-12-16T09:40:03.048Z,993.94
2018-12-16T09:41:03.145Z,993.94
2018-12-16T09:42:04.357Z,993.94
2018-12-16T09:43:01.491Z,993.97
2018-12-16T09:43:59.762Z,993.97
2018-12-16T09:45:03.353Z,994.03
2018-12-16T09:46:00.979Z,994
2018-12-16T09:46:59.529Z,993.99
2018-12-16T09:47:55.765Z,993.94
2018-12-16T09:48:58.177Z,993.89
2018-12-16T09:49:55.058Z,993.83
2018-12-16T09:50:51.567Z,993.92
2018-12-16T09:51:49.650Z,993.88
2018-12-16T09:52:44.987Z,994
2018-12-16T09:53:48.380Z,993.97
2018-12-16T09:54:46.026Z,993.85
2018-12-16T09:55:45.194Z,993.89
2018-12-16T09:56:43.293Z,993.95
2018-12-16T09:57:43.489Z,993.87
2018-12-16T09:58:44.307Z,993.86
2018-12-16T09:59:42.696Z,993.92
2018-12-16T10:00:41.267Z,993.84
2018-12-16T10:01:37.108Z,993.84
2018-12-16T10:02:26.103Z,993.86
2018-12-16T10:03:21.441Z,993.86
2018-12-16T10:04:19.342Z,993.89
2018-12-16T10:05:23.605Z,993.74
2018-12-16T10:06:20.888Z,993.74
2018-12-16T10:07:18.555Z,993.74
2018-12-16T10:08:13.992Z,993.67
2018-12-16T10:09:12.936Z,993.7
2018-12-16T10:10:08.846Z,993.79
2018-12-16T10:11:04.541Z,993.73
2018-12-16T10:12:00.116Z,993.71
2018-12-16T10:12:58.692Z,993.73
2018-12-16T10:13:54.841Z,993.81
2018-12-16T10:14:51.428Z,993.77
2018-12-16T10:15:47.595Z,993.78
2018-12-16T10:16:43.445Z,993.74
2018-12-16T10:17:39.939Z,993.75
2018-12-16T10:18:36.259Z,993.8
2018-12-16T10:19:36.551Z,993.85
2018-12-16T10:20:35.329Z,993.75
2018-12-16T10:21:34.065Z,993.84
2018-12-16T10:22:30.330Z,993.95
2018-12-16T10:23:30.132Z,993.92
2018-12-16T10:24:25.821Z,993.86
2018-12-16T10:25:41.572Z,993.89
2018-12-16T10:26:49.345Z,993.85
2018-12-16T10:27:52.115Z,993.87
2018-12-16T10:28:53.806Z,993.89
2018-12-16T10:29:49.610Z,993.83
2018-12-16T10:30:46.501Z,993.8
2018-12-16T10:31:43.214Z,993.93
2018-12-16T10:32:40.502Z,993.84
2018-12-16T10:33:37.811Z,993.93
2018-12-16T10:34:46.401Z,993.87
2018-12-16T10:35:43.831Z,993.84
2018-12-16T10:36:43.773Z,993.97
2018-12-16T10:37:41.053Z,993.88
2018-12-16T10:38:38.731Z,993.85
2018-12-16T10:39:35.680Z,993.77
2018-12-16T10:40:32.677Z,993.79
2018-12-16T10:41:30.288Z,993.77
2018-12-16T10:42:30.117Z,993.74
2018-12-16T10:43:26.885Z,993.8
2018-12-16T10:44:25.857Z,993.88
2018-12-16T10:45:23.009Z,993.85
2018-12-16T10:46:19.434Z,993.88
2018-12-16T10:47:15.973Z,993.94
2018-12-16T10:48:16.781Z,993.85
2018-12-16T10:49:19.180Z,993.85
2018-12-16T10:50:17.923Z,993.92
2018-12-16T10:51:15.729Z,993.91
2018-12-16T10:52:15.261Z,993.9
2018-12-16T10:53:12.089Z,993.9
2018-12-16T10:54:10.907Z,993.86
2018-12-16T10:55:09.946Z,993.8
2018-12-16T10:56:08.535Z,993.89
2018-12-16T10:57:08.133Z,993.81
2018-12-16T10:58:04.765Z,993.8
2018-12-16T10:59:03.801Z,993.85
2018-12-16T11:00:01.114Z,993.88
2018-12-16T11:00:57.890Z,993.81
2018-12-16T11:01:55.230Z,993.87
2018-12-16T11:02:55.283Z,993.88
2018-12-16T11:03:53.328Z,993.94
2018-12-16T11:04:51.653Z,993.78
2018-12-16T11:05:48.672Z,993.76
2018-12-16T11:06:45.963Z,993.77
2018-12-16T11:07:46.555Z,993.82
2018-12-16T11:08:44.642Z,993.82
2018-12-16T11:09:41.839Z,993.76
2018-12-16T11:10:42.198Z,993.77
2018-12-16T11:11:39.817Z,993.8
2018-12-16T11:13:49.100Z,993.77
2018-12-16T11:14:42.981Z,993.78
2018-12-16T11:15:41.040Z,993.8
2018-12-16T11:16:40.292Z,993.75
2018-12-16T11:17:38.614Z,993.79
2018-12-16T11:18:37.727Z,993.71
2018-12-16T11:19:35.990Z,993.68
2018-12-16T11:20:34.513Z,993.73
2018-12-16T11:21:35.568Z,993.81
2018-12-16T11:22:33.894Z,993.67
2018-12-16T11:23:33.785Z,993.67
2018-12-16T11:24:33.994Z,993.72
2018-12-16T11:25:33.430Z,993.54
2018-12-16T11:26:33.937Z,993.64
2018-12-16T11:27:35.675Z,993.63
2018-12-16T11:28:34.226Z,993.58
2018-12-16T11:29:32.503Z,993.73
2018-12-16T11:30:33.292Z,993.67
2018-12-16T11:31:32.509Z,993.7
2018-12-16T11:32:36.643Z,993.7
2018-12-16T11:33:35.003Z,993.64
2018-12-16T11:34:35.483Z,993.64
2018-12-16T11:35:34.803Z,993.7
2018-12-16T11:36:33.201Z,993.65
2018-12-16T11:37:43.295Z,993.72
2018-12-16T11:38:42.906Z,993.65
2018-12-16T11:39:43.645Z,993.61
2018-12-16T11:40:42.686Z,993.66
2018-12-16T11:41:44.820Z,993.62
2018-12-16T11:42:43.060Z,993.65
2018-12-16T11:43:43.313Z,993.68
2018-12-16T11:44:44.434Z,993.62
2018-12-16T11:45:43.029Z,993.59
2018-12-16T11:46:43.627Z,993.68
2018-12-16T11:47:42.128Z,993.56
2018-12-16T11:48:46.518Z,993.62
2018-12-16T11:49:48.648Z,993.75
2018-12-16T11:50:46.957Z,993.7
2018-12-16T11:51:48.721Z,993.64
2018-12-16T11:52:48.497Z,993.64
2018-12-16T11:53:52.239Z,993.66
2018-12-16T11:54:54.599Z,993.6
2018-12-16T11:55:53.195Z,993.75
2018-12-16T11:56:55.258Z,993.72
2018-12-16T11:57:54.972Z,993.69
2018-12-16T11:58:59.163Z,993.66
2018-12-16T11:59:58.190Z,993.69
2018-12-16T12:00:58.394Z,993.64
2018-12-16T12:01:59.219Z,993.61
2018-12-16T12:02:59.692Z,993.7
2018-12-16T12:03:59.622Z,993.68
2018-12-16T12:05:00.280Z,993.63
2018-12-16T12:05:59.811Z,993.68
2018-12-16T12:07:02.464Z,993.76
2018-12-16T12:08:00.798Z,993.76
2018-12-16T12:09:03.764Z,993.65
2018-12-16T12:10:03.261Z,993.64
2018-12-16T12:11:04.836Z,993.64
2018-12-16T12:12:07.266Z,993.64
2018-12-16T12:13:07.147Z,993.59
2018-12-16T12:14:05.717Z,993.58
2018-12-16T12:15:04.528Z,993.58
2018-12-16T12:16:03.733Z,993.52
2018-12-16T12:17:04.392Z,993.59
2018-12-16T12:18:03.690Z,993.56
2018-12-16T12:19:07.427Z,993.59
2018-12-16T12:20:09.935Z,993.59
2018-12-16T12:21:15.258Z,993.58
2018-12-16T12:22:16.536Z,993.61
2018-12-16T12:23:15.939Z,993.55
2018-12-16T12:24:15.312Z,993.7
2018-12-16T12:25:19.881Z,993.52
2018-12-16T12:26:17.659Z,993.53